createdAt,value
2022-11-15T00:03:01.444Z,6.24
2022-11-15T00:05:52.360Z,6.28
2022-11-15T00:08:42.759Z,6.35
2022-11-15T00:11:33.577Z,6.33
2022-11-15T00:14:23.821Z,6.27
2022-11-15T00:17:14.029Z,6.28
2022-11-15T00:20:04.546Z,6.33
2022-11-15T00:22:54.836Z,6.33
2022-11-15T00:25:44.975Z,6.32
2022-11-15T00:28:35.625Z,6.31
2022-11-15T00:31:25.744Z,6.30
2022-11-15T00:34:16.366Z,6.30
2022-11-15T00:37:08.260Z,6.29
2022-11-15T00:39:58.824Z,6.31
2022-11-15T00:42:49.555Z,6.36
2022-11-15T00:45:39.751Z,6.39
2022-11-15T00:48:30.197Z,6.40
2022-11-15T00:51:20.254Z,6.37
2022-11-15T00:54:10.851Z,6.31
2022-11-15T00:57:01.053Z,6.28
2022-11-15T00:59:53.290Z,6.33
2022-11-15T01:02:43.637Z,6.41
2022-11-15T01:05:33.867Z,6.39
2022-11-15T01:08:24.246Z,6.42
2022-11-15T01:11:15.443Z,6.46
2022-11-15T01:14:05.834Z,6.45
2022-11-15T01:16:56.149Z,6.44
2022-11-15T01:19:46.964Z,6.44
2022-11-15T01:22:37.358Z,6.37
2022-11-15T01:25:28.834Z,6.31
2022-11-15T01:28:19.225Z,6.27
2022-11-15T01:31:13.783Z,6.28
2022-11-15T01:34:03.883Z,6.27
2022-11-15T01:36:54.126Z,6.24
2022-11-15T01:39:44.383Z,6.22
2022-11-15T01:42:34.746Z,6.19
2022-11-15T01:45:25.281Z,6.14
2022-11-15T01:48:15.838Z,6.12
2022-11-15T01:51:12.333Z,6.10
2022-11-15T01:54:06.606Z,6.13
2022-11-15T01:57:01.184Z,6.09
2022-11-15T01:59:51.628Z,6.08
2022-11-15T02:02:42.189Z,6.03
2022-11-15T02:05:33.762Z,5.97
2022-11-15T02:08:24.383Z,5.91
2022-11-15T02:11:14.840Z,5.89
2022-11-15T02:14:06.564Z,5.92
2022-11-15T02:17:04.201Z,5.99
2022-11-15T02:20:22.343Z,6.08
2022-11-15T02:23:38.221Z,6.16
2022-11-15T02:26:54.963Z,6.27
2022-11-15T02:30:05.859Z,6.32
2022-11-15T02:33:00.974Z,6.29
2022-11-15T02:36:00.123Z,6.23
2022-11-15T02:39:00.609Z,6.14
2022-11-15T02:41:56.422Z,6.07
2022-11-15T02:44:49.482Z,6.07
2022-11-15T02:47:45.103Z,6.06
2022-11-15T02:50:36.533Z,6.06
2022-11-15T02:53:29.737Z,6.02
2022-11-15T02:56:20.396Z,6.02
2022-11-15T02:59:35.565Z,6.02
2022-11-15T03:02:41.477Z,5.96
2022-11-15T03:05:43.243Z,5.92
2022-11-15T03:08:42.362Z,5.88
2022-11-15T03:11:35.180Z,5.87
2022-11-15T03:14:31.551Z,5.81
2022-11-15T03:17:26.138Z,5.78
2022-11-15T03:20:19.288Z,5.78
2022-11-15T03:23:13.144Z,5.76
2022-11-15T03:26:03.990Z,5.76
2022-11-15T03:29:01.467Z,5.79
2022-11-15T03:31:58.956Z,5.81
2022-11-15T03:34:53.399Z,5.79
2022-11-15T03:37:47.925Z,5.75
2022-11-15T03:40:41.932Z,5.72
2022-11-15T03:43:38.875Z,5.70
2022-11-15T03:46:34.951Z,5.74
2022-11-15T03:49:29.627Z,5.75
2022-11-15T03:52:21.383Z,5.76
2022-11-15T03:55:17.229Z,5.74
2022-11-15T03:58:08.227Z,5.75
2022-11-15T04:01:00.498Z,5.76
2022-11-15T04:03:51.289Z,5.79
2022-11-15T04:06:41.556Z,5.83
2022-11-15T04:09:31.855Z,5.83
2022-11-15T04:12:31.914Z,5.83
2022-11-15T04:15:24.733Z,5.83
2022-11-15T04:18:14.935Z,5.77
2022-11-15T04:21:23.126Z,5.61
2022-11-15T04:24:16.286Z,5.46
2022-11-15T04:27:06.939Z,5.34
2022-11-15T04:29:58.923Z,5.27
2022-11-15T04:32:49.895Z,5.16
2022-11-15T04:35:40.319Z,5.08
2022-11-15T04:38:31.250Z,5.01
2022-11-15T04:41:21.877Z,4.94
2022-11-15T04:44:12.157Z,4.86
2022-11-15T04:47:02.784Z,4.77
2022-11-15T04:49:53.043Z,4.70
2022-11-15T04:52:45.698Z,4.69
2022-11-15T04:55:36.155Z,4.75
2022-11-15T04:58:26.654Z,4.77
2022-11-15T05:01:18.199Z,4.80
2022-11-15T05:04:22.685Z,4.79
2022-11-15T05:07:13.804Z,4.76
2022-11-15T05:10:04.946Z,4.73
2022-11-15T05:12:55.779Z,4.67
2022-11-15T05:15:47.160Z,4.68
2022-11-15T05:18:37.847Z,4.72
2022-11-15T05:21:28.722Z,4.70
2022-11-15T05:24:19.445Z,4.64
2022-11-15T05:27:10.173Z,4.60
2022-11-15T05:30:00.640Z,4.63
2022-11-15T05:32:51.594Z,4.59
2022-11-15T05:35:44.547Z,4.55
2022-11-15T05:38:35.401Z,4.47
2022-11-15T05:41:32.920Z,4.40
2022-11-15T05:44:27.323Z,4.39
2022-11-15T05:47:22.037Z,4.38
2022-11-15T05:50:16.751Z,4.34
2022-11-15T05:53:10.001Z,4.29
2022-11-15T05:56:00.622Z,4.32
2022-11-15T05:58:53.467Z,4.35
2022-11-15T06:01:46.430Z,4.35
2022-11-15T06:04:37.077Z,4.29
2022-11-15T06:07:27.618Z,4.25
2022-11-15T06:10:18.079Z,4.21
2022-11-15T06:13:08.777Z,4.16
2022-11-15T06:16:00.656Z,4.09
2022-11-15T06:18:50.976Z,4.08
2022-11-15T06:21:41.344Z,4.06
2022-11-15T06:24:32.057Z,4.08
2022-11-15T06:27:22.692Z,4.12
2022-11-15T06:30:14.572Z,4.10
2022-11-15T06:33:06.736Z,4.10
2022-11-15T06:35:57.104Z,4.05
2022-11-15T06:38:47.834Z,4.03
2022-11-15T06:41:39.094Z,4.06
2022-11-15T06:44:29.940Z,4.08
2022-11-15T06:47:20.372Z,4.11
2022-11-15T06:50:11.742Z,4.17
2022-11-15T06:53:06.335Z,4.26
2022-11-15T06:56:00.198Z,4.36
2022-11-15T06:58:52.382Z,4.43
2022-11-15T07:01:42.817Z,4.51
2022-11-15T07:04:34.011Z,4.62
2022-11-15T07:07:24.759Z,4.71
2022-11-15T07:10:15.202Z,4.78
2022-11-15T07:13:05.814Z,4.82
2022-11-15T07:15:56.449Z,4.90
2022-11-15T07:18:46.861Z,5.01
2022-11-15T07:21:37.515Z,5.09
2022-11-15T07:24:28.044Z,5.14
2022-11-15T07:27:18.834Z,5.14
2022-11-15T07:30:11.140Z,5.12
2022-11-15T07:33:03.243Z,5.07
2022-11-15T07:35:53.852Z,5.07
2022-11-15T07:38:44.218Z,5.10
2022-11-15T07:41:34.915Z,5.18
2022-11-15T07:44:25.548Z,5.24
2022-11-15T07:47:16.160Z,5.32
2022-11-15T07:50:07.314Z,5.34
2022-11-15T07:52:59.316Z,5.29
2022-11-15T07:55:50.120Z,5.27
2022-11-15T07:58:40.793Z,5.29
2022-11-15T08:01:31.887Z,5.29
2022-11-15T08:04:22.668Z,5.30
2022-11-15T08:07:13.883Z,5.35
2022-11-15T08:10:05.288Z,5.45
2022-11-15T08:13:02.698Z,5.56
2022-11-15T08:15:57.563Z,5.66
2022-11-15T08:18:48.584Z,5.68
2022-11-15T08:21:39.416Z,5.73
2022-11-15T08:24:30.419Z,5.77
2022-11-15T08:27:21.223Z,5.79
2022-11-15T08:30:13.629Z,5.79
2022-11-15T08:33:04.812Z,5.84
2022-11-15T08:35:58.131Z,5.90
2022-11-15T08:38:48.775Z,5.99
2022-11-15T08:41:40.652Z,6.09
2022-11-15T08:44:30.837Z,6.20
2022-11-15T08:47:21.084Z,6.31
2022-11-15T08:50:12.357Z,6.42
2022-11-15T08:53:08.144Z,6.51
2022-11-15T08:55:58.390Z,6.59
2022-11-15T08:58:48.928Z,6.68
2022-11-15T09:01:39.367Z,6.80
2022-11-15T09:04:30.196Z,6.93
2022-11-15T09:07:23.237Z,7.09
2022-11-15T09:10:13.847Z,7.25
2022-11-15T09:13:04.419Z,7.46
2022-11-15T09:15:55.088Z,7.65
2022-11-15T09:18:45.739Z,7.80
2022-11-15T09:21:37.257Z,7.91
2022-11-15T09:24:27.917Z,7.97
2022-11-15T09:27:18.141Z,7.99
2022-11-15T09:30:10.396Z,8.00
2022-11-15T09:33:00.814Z,8.05
2022-11-15T09:35:51.107Z,8.13
2022-11-15T09:38:41.662Z,8.27
2022-11-15T09:41:43.544Z,8.41
2022-11-15T09:44:49.770Z,8.53
2022-11-15T09:47:54.284Z,8.66
2022-11-15T09:50:48.907Z,8.76
2022-11-15T09:54:01.214Z,8.83
2022-11-15T09:56:22.685Z,8.90
2022-11-15T09:59:02.367Z,8.97
2022-11-15T10:01:44.014Z,9.05
2022-11-15T10:04:17.268Z,9.14
2022-11-15T10:06:56.414Z,9.21
2022-11-15T10:09:34.118Z,9.27
2022-11-15T10:12:06.683Z,9.30
2022-11-15T10:14:39.286Z,9.31
2022-11-15T10:17:32.184Z,9.29
2022-11-15T10:20:12.674Z,9.31
2022-11-15T10:22:49.383Z,9.36
2022-11-15T10:25:25.211Z,9.44
2022-11-15T10:28:02.989Z,9.49
2022-11-15T10:30:38.879Z,9.53
2022-11-15T10:33:19.827Z,9.57
2022-11-15T10:36:11.585Z,9.61
2022-11-15T10:38:56.159Z,9.63
2022-11-15T10:41:41.137Z,9.63
2022-11-15T10:44:23.111Z,9.60
2022-11-15T10:47:23.070Z,9.59
2022-11-15T10:50:01.123Z,9.59
2022-11-15T10:52:36.404Z,9.61
2022-11-15T10:55:29.031Z,9.64
2022-11-15T10:58:07.687Z,9.67
2022-11-15T11:00:40.882Z,9.72
2022-11-15T11:03:31.548Z,9.81
2022-11-15T11:06:14.340Z,9.90
2022-11-15T11:08:58.221Z,9.99
2022-11-15T11:11:48.380Z,10.03
2022-11-15T11:14:24.414Z,10.05
2022-11-15T11:17:05.225Z,10.11
2022-11-15T11:19:59.159Z,10.23
2022-11-15T11:22:41.297Z,10.41
2022-11-15T11:25:30.300Z,10.61
2022-11-15T11:28:16.912Z,10.87
2022-11-15T11:30:59.892Z,11.08
2022-11-15T11:33:36.139Z,11.29
2022-11-15T11:36:18.902Z,11.48
2022-11-15T11:39:09.815Z,11.64
2022-11-15T11:41:55.375Z,11.74
2022-11-15T11:44:39.428Z,11.81
2022-11-15T11:47:14.567Z,11.94
2022-11-15T11:49:52.667Z,12.07
2022-11-15T11:52:27.863Z,12.24
2022-11-15T11:55:05.952Z,12.39
2022-11-15T11:57:48.847Z,12.53
2022-11-15T12:00:23.048Z,12.67
2022-11-15T12:03:10.137Z,12.78
2022-11-15T12:05:46.135Z,12.88
2022-11-15T12:08:30.679Z,12.94
2022-11-15T12:11:11.985Z,12.96
2022-11-15T12:13:44.905Z,12.96
2022-11-15T12:16:24.162Z,13.00
2022-11-15T12:18:59.005Z,13.02
2022-11-15T12:21:40.319Z,13.05
2022-11-15T12:24:19.968Z,13.07
2022-11-15T12:26:56.794Z,13.07
2022-11-15T12:29:34.855Z,13.03
2022-11-15T12:32:05.806Z,12.93
2022-11-15T12:34:46.048Z,12.81
2022-11-15T12:37:56.359Z,12.73
2022-11-15T12:40:39.200Z,12.68
2022-11-15T12:43:39.721Z,12.68
2022-11-15T12:46:15.971Z,12.67
2022-11-15T12:48:59.147Z,12.70
2022-11-15T12:52:05.749Z,12.70
2022-11-15T12:54:59.077Z,12.72
2022-11-15T12:57:45.539Z,12.70
2022-11-15T13:00:49.137Z,12.68
2022-11-15T13:03:27.933Z,12.67
2022-11-15T13:06:32.026Z,12.62
2022-11-15T13:09:04.521Z,12.51
2022-11-15T13:12:03.744Z,12.41
2022-11-15T13:14:44.371Z,12.37
2022-11-15T13:17:30.988Z,12.32
2022-11-15T13:20:15.483Z,12.29
2022-11-15T13:22:57.622Z,12.30
2022-11-15T13:25:59.126Z,12.31
2022-11-15T13:28:37.987Z,12.32
2022-11-15T13:31:25.738Z,12.30
2022-11-15T13:34:01.347Z,12.29
2022-11-15T13:36:35.650Z,12.28
2022-11-15T13:39:16.423Z,12.24
2022-11-15T13:41:52.746Z,12.16
2022-11-15T13:44:26.430Z,12.09
2022-11-15T13:47:15.041Z,12.02
2022-11-15T13:49:46.862Z,11.96
2022-11-15T13:52:19.022Z,11.90
2022-11-15T13:54:58.627Z,11.87
2022-11-15T13:57:37.837Z,11.83
2022-11-15T14:00:29.390Z,11.81
2022-11-15T14:03:10.502Z,11.76
2022-11-15T14:05:42.627Z,11.73
2022-11-15T14:08:26.436Z,11.68
2022-11-15T14:11:21.758Z,11.65
2022-11-15T14:14:23.619Z,11.55
2022-11-15T14:16:57.198Z,11.43
2022-11-15T14:19:40.972Z,11.32
2022-11-15T14:22:15.081Z,11.19
2022-11-15T14:24:49.076Z,11.10
2022-11-15T14:30:18.421Z,10.90
2022-11-15T14:32:51.789Z,10.82
2022-11-15T14:35:25.905Z,10.74
2022-11-15T14:37:57.805Z,10.64
2022-11-15T14:40:29.669Z,10.50
2022-11-15T14:43:01.445Z,10.36
2022-11-15T14:45:33.590Z,10.23
2022-11-15T14:48:05.605Z,10.09
2022-11-15T14:50:38.952Z,9.92
2022-11-15T14:53:16.828Z,9.76
2022-11-15T14:55:48.697Z,9.62
2022-11-15T14:58:20.448Z,9.51
2022-11-15T15:00:52.390Z,9.41
2022-11-15T15:03:24.606Z,9.31
2022-11-15T15:05:57.440Z,9.22
2022-11-15T15:08:29.384Z,9.15
2022-11-15T15:11:02.300Z,9.07
2022-11-15T15:13:34.073Z,8.96
2022-11-15T15:16:06.471Z,8.84
2022-11-15T15:18:38.930Z,8.77
2022-11-15T15:21:22.248Z,8.77
2022-11-15T15:23:55.083Z,8.77
2022-11-15T15:26:27.398Z,8.78
2022-11-15T15:29:00.786Z,8.82
2022-11-15T15:31:33.791Z,8.90
2022-11-15T15:34:05.626Z,8.98
2022-11-15T15:36:37.395Z,9.01
2022-11-15T15:39:12.415Z,9.04
2022-11-15T15:41:44.857Z,9.06
2022-11-15T15:44:16.573Z,9.05
2022-11-15T15:46:48.390Z,9.04
2022-11-15T15:49:20.236Z,9.05
2022-11-15T15:51:51.978Z,9.05
2022-11-15T15:54:23.698Z,9.03
2022-11-15T15:56:56.410Z,8.94
2022-11-15T15:59:28.221Z,8.87
2022-11-15T16:02:00.179Z,8.79
2022-11-15T16:04:32.030Z,8.72
2022-11-15T16:07:05.545Z,8.63
2022-11-15T16:09:54.742Z,8.57
2022-11-15T16:12:26.466Z,8.51
2022-11-15T16:14:58.497Z,8.49
2022-11-15T16:17:34.592Z,8.50
2022-11-15T16:20:07.364Z,8.52
2022-11-15T16:22:39.107Z,8.52
2022-11-15T16:25:11.752Z,8.53
2022-11-15T16:27:46.063Z,8.54
2022-11-15T16:30:20.552Z,8.56
2022-11-15T16:32:52.690Z,8.55
2022-11-15T16:35:25.686Z,8.52
2022-11-15T16:37:57.437Z,8.50
2022-11-15T16:40:32.215Z,8.51
2022-11-15T16:43:06.506Z,8.55
2022-11-15T16:45:38.648Z,8.61
2022-11-15T16:48:20.281Z,8.63
2022-11-15T16:50:52.490Z,8.64
2022-11-15T16:53:24.221Z,8.66
2022-11-15T16:55:56.454Z,8.69
2022-11-15T16:58:28.249Z,8.70
2022-11-15T17:01:00.064Z,8.70
2022-11-15T17:03:32.296Z,8.72
2022-11-15T17:06:05.038Z,8.71
2022-11-15T17:08:36.775Z,8.69
2022-11-15T17:11:10.310Z,8.67
2022-11-15T17:13:42.084Z,8.66
2022-11-15T17:16:16.023Z,8.65
2022-11-15T17:18:51.714Z,8.67
2022-11-15T17:21:24.553Z,8.66
2022-11-15T17:23:56.779Z,8.59
2022-11-15T17:26:31.276Z,8.54
2022-11-15T17:29:04.637Z,8.50
2022-11-15T17:31:37.681Z,8.42
2022-11-15T17:34:10.070Z,8.33
2022-11-15T17:36:41.962Z,8.24
2022-11-15T17:39:13.700Z,8.20
2022-11-15T17:41:45.465Z,8.23
2022-11-15T17:44:17.628Z,8.32
2022-11-15T17:46:49.505Z,8.43
2022-11-15T17:49:21.251Z,8.53
2022-11-15T17:51:53.450Z,8.61
2022-11-15T17:54:25.191Z,8.63
2022-11-15T17:56:57.656Z,8.61
2022-11-15T17:59:29.437Z,8.59
2022-11-15T18:02:01.503Z,8.59
2022-11-15T18:04:33.304Z,8.56
2022-11-15T18:07:05.285Z,8.57
2022-11-15T18:09:37.665Z,8.59
2022-11-15T18:12:12.941Z,8.64
2022-11-15T18:14:44.738Z,8.62
2022-11-15T18:17:19.042Z,8.60
2022-11-15T18:19:50.866Z,8.64
2022-11-15T18:22:23.561Z,8.71
2022-11-15T18:24:55.605Z,8.75
2022-11-15T18:27:29.394Z,8.76
2022-11-15T18:30:01.158Z,8.77
2022-11-15T18:32:32.957Z,8.75
2022-11-15T18:35:04.996Z,8.77
2022-11-15T18:37:36.813Z,8.81
2022-11-15T18:40:10.766Z,8.85
2022-11-15T18:42:42.693Z,8.83
2022-11-15T18:45:17.212Z,8.79
2022-11-15T18:47:53.956Z,8.74
2022-11-15T18:50:25.769Z,8.69
2022-11-15T18:52:57.496Z,8.68
2022-11-15T18:55:29.239Z,8.66
2022-11-15T18:58:01.035Z,8.64
2022-11-15T19:00:32.774Z,8.67
2022-11-15T19:03:04.823Z,8.71
2022-11-15T19:05:36.640Z,8.78
2022-11-15T19:08:08.462Z,8.81
2022-11-15T19:10:40.500Z,8.79
2022-11-15T19:13:12.257Z,8.81
2022-11-15T19:15:44.131Z,8.82
2022-11-15T19:18:17.126Z,8.78
2022-11-15T19:20:49.991Z,8.78
2022-11-15T19:23:21.897Z,8.83
2022-11-15T19:26:01.312Z,8.86
2022-11-15T19:28:36.555Z,8.88
2022-11-15T19:31:09.840Z,8.89
2022-11-15T19:33:42.444Z,8.89
2022-11-15T19:36:16.299Z,8.92
2022-11-15T19:38:48.343Z,8.93
2022-11-15T19:41:21.748Z,8.98
2022-11-15T19:43:54.326Z,9.02
2022-11-15T19:46:27.007Z,9.03
2022-11-15T19:48:58.801Z,9.06
2022-11-15T19:51:31.840Z,9.09
2022-11-15T19:54:06.732Z,9.10
2022-11-15T19:56:39.955Z,9.12
2022-11-15T19:59:13.607Z,9.08
2022-11-15T20:01:45.376Z,9.01
2022-11-15T20:04:17.201Z,8.99
2022-11-15T20:06:50.023Z,8.98
2022-11-15T20:09:21.840Z,8.98
2022-11-15T20:11:53.598Z,9.03
2022-11-15T20:14:25.339Z,9.10
2022-11-15T20:16:57.476Z,9.18
2022-11-15T20:19:29.282Z,9.23
2022-11-15T20:22:01.046Z,9.22
2022-11-15T20:24:32.792Z,9.17
2022-11-15T20:27:04.618Z,9.12
2022-11-15T20:29:37.049Z,9.12
2022-11-15T20:32:10.882Z,9.15
2022-11-15T20:34:42.692Z,9.13
2022-11-15T20:37:14.462Z,9.11
2022-11-15T20:39:46.262Z,9.14
2022-11-15T20:42:18.039Z,9.14
2022-11-15T20:44:49.816Z,9.15
2022-11-15T20:47:22.696Z,9.17
2022-11-15T20:50:05.789Z,9.15
2022-11-15T20:52:46.913Z,9.06
2022-11-15T20:55:18.965Z,9.03
2022-11-15T20:57:50.732Z,9.00
2022-11-15T21:00:25.873Z,8.95
2022-11-15T21:02:57.682Z,8.91
2022-11-15T21:05:29.982Z,8.95
2022-11-15T21:08:01.831Z,9.00
2022-11-15T21:10:50.805Z,9.04
2022-11-15T21:13:22.706Z,9.08
2022-11-15T21:15:56.427Z,9.11
2022-11-15T21:18:28.561Z,9.12
2022-11-15T21:21:04.734Z,9.14
2022-11-15T21:23:36.535Z,9.17
2022-11-15T21:26:10.003Z,9.20
2022-11-15T21:28:42.428Z,9.22
2022-11-15T21:31:14.185Z,9.25
2022-11-15T21:33:45.941Z,9.21
2022-11-15T21:36:17.793Z,9.19
2022-11-15T21:38:49.553Z,9.14
2022-11-15T21:41:24.272Z,9.11
2022-11-15T21:43:59.818Z,9.11
2022-11-15T21:46:32.508Z,9.08
2022-11-15T21:49:05.240Z,9.07
2022-11-15T21:51:37.251Z,9.06
2022-11-15T21:54:09.974Z,9.04
2022-11-15T21:56:43.264Z,9.06
2022-11-15T21:59:15.115Z,9.09
2022-11-15T22:02:05.068Z,9.12
2022-11-15T22:04:37.101Z,9.15
2022-11-15T22:07:11.558Z,9.16
2022-11-15T22:09:43.543Z,9.14
2022-11-15T22:12:15.410Z,9.10
2022-11-15T22:14:47.218Z,9.05
2022-11-15T22:17:19.780Z,9.01
2022-11-15T22:19:52.837Z,8.98
2022-11-15T22:22:24.988Z,8.94
2022-11-15T22:24:56.846Z,8.92
2022-11-15T22:27:28.983Z,8.90
2022-11-15T22:30:00.999Z,8.88
2022-11-15T22:32:32.807Z,8.88
2022-11-15T22:35:04.874Z,8.92
2022-11-15T22:37:36.751Z,8.96
2022-11-15T22:40:10.721Z,8.99
2022-11-15T22:42:42.649Z,9.02
2022-11-15T22:45:14.694Z,9.01
2022-11-15T22:47:46.541Z,9.02
2022-11-15T22:50:19.101Z,9.03
2022-11-15T22:52:51.270Z,9.04
2022-11-15T22:55:23.102Z,9.05
2022-11-15T22:57:54.947Z,9.05
2022-11-15T23:00:26.797Z,9.05
2022-11-15T23:02:58.670Z,9.01
2022-11-15T23:05:30.543Z,8.94
2022-11-15T23:08:03.406Z,8.89
2022-11-15T23:10:52.757Z,8.84
2022-11-15T23:13:25.293Z,8.82
2022-11-15T23:16:23.723Z,8.81
2022-11-15T23:18:59.385Z,8.83
2022-11-15T23:21:50.616Z,8.87
2022-11-15T23:24:23.272Z,8.92
2022-11-15T23:26:58.022Z,9.00
2022-11-15T23:29:31.209Z,9.07
2022-11-15T23:32:20.585Z,9.12
2022-11-15T23:34:52.414Z,9.16
2022-11-15T23:37:24.232Z,9.15
2022-11-15T23:39:56.193Z,9.14
2022-11-15T23:42:28.041Z,9.12
2022-11-15T23:45:00.515Z,9.09
2022-11-15T23:47:32.438Z,9.02
2022-11-15T23:50:04.769Z,8.93
2022-11-15T23:52:36.611Z,8.85
2022-11-15T23:55:09.761Z,8.79
2022-11-15T23:57:41.566Z,8.77
